sensor_id;sensor_type;location;lat;lon;timestamp;temperature;humidity
8313;DHT22;4194;43.408;24.626;2022-12-24T00:04:26;2.60;99.90
8313;DHT22;4194;43.408;24.626;2022-12-24T00:09:18;2.70;99.90
8313;DHT22;4194;43.408;24.626;2022-12-24T00:11:44;1.90;99.90
8313;DHT22;4194;43.408;24.626;2022-12-24T00:14:09;2.00;99.90
8313;DHT22;4194;43.408;24.626;2022-12-24T00:16:35;2.50;99.90
8313;DHT22;4194;43.408;24.626;2022-12-24T00:19:01;3.80;99.90
8313;DHT22;4194;43.408;24.626;2022-12-24T00:21:27;2.20;99.90
8313;DHT22;4194;43.408;24.626;2022-12-24T00:23:52;2.50;99.90
8313;DHT22;4194;43.408;24.626;2022-12-24T00:26:18;1.90;99.90
8313;DHT22;4194;43.408;24.626;2022-12-24T00:28:44;2.30;99.90
8313;DHT22;4194;43.408;24.626;2022-12-24T00:31:12;4.00;99.90
8313;DHT22;4194;43.408;24.626;2022-12-24T00:33:39;2.20;99.90
8313;DHT22;4194;43.408;24.626;2022-12-24T00:36:05;3.20;99.90
8313;DHT22;4194;43.408;24.626;2022-12-24T00:38:31;2.20;99.90
8313;DHT22;4194;43.408;24.626;2022-12-24T00:41:02;1.90;99.90
8313;DHT22;4194;43.408;24.626;2022-12-24T00:43:29;2.50;99.90
8313;DHT22;4194;43.408;24.626;2022-12-24T00:45:55;3.70;99.90
8313;DHT22;4194;43.408;24.626;2022-12-24T00:48:21;1.50;99.90
8313;DHT22;4194;43.408;24.626;2022-12-24T00:50:48;2.10;99.90
8313;DHT22;4194;43.408;24.626;2022-12-24T00:53:16;2.10;99.90
8313;DHT22;4194;43.408;24.626;2022-12-24T00:55:41;3.30;99.90
8313;DHT22;4194;43.408;24.626;2022-12-24T00:58:07;3.40;99.90
8313;DHT22;4194;43.408;24.626;2022-12-24T01:00:33;2.10;99.90
8313;DHT22;4194;43.408;24.626;2022-12-24T01:02:59;4.00;99.90
8313;DHT22;4194;43.408;24.626;2022-12-24T01:05:24;2.90;99.90
8313;DHT22;4194;43.408;24.626;2022-12-24T01:07:50;2.00;99.90
8313;DHT22;4194;43.408;24.626;2022-12-24T01:10:18;1.40;99.90
8313;DHT22;4194;43.408;24.626;2022-12-24T01:12:44;1.60;99.90
8313;DHT22;4194;43.408;24.626;2022-12-24T01:15:12;2.70;99.90
8313;DHT22;4194;43.408;24.626;2022-12-24T01:17:39;1.80;99.90
8313;DHT22;4194;43.408;24.626;2022-12-24T01:20:08;2.10;99.90
8313;DHT22;4194;43.408;24.626;2022-12-24T01:22:34;3.90;99.90
8313;DHT22;4194;43.408;24.626;2022-12-24T01:25:00;0.90;99.90
8313;DHT22;4194;43.408;24.626;2022-12-24T01:29:51;2.60;99.90
8313;DHT22;4194;43.408;24.626;2022-12-24T01:34:43;1.60;99.90
8313;DHT22;4194;43.408;24.626;2022-12-24T01:37:09;2.60;99.90
8313;DHT22;4194;43.408;24.626;2022-12-24T01:39:34;2.10;99.90
8313;DHT22;4194;43.408;24.626;2022-12-24T01:42:00;2.10;99.90
8313;DHT22;4194;43.408;24.626;2022-12-24T01:47:21;1.60;99.90
8313;DHT22;4194;43.408;24.626;2022-12-24T01:49:56;2.70;99.90
8313;DHT22;4194;43.408;24.626;2022-12-24T01:52:29;2.40;99.90
8313;DHT22;4194;43.408;24.626;2022-12-24T01:55:16;2.40;99.90
8313;DHT22;4194;43.408;24.626;2022-12-24T02:00:14;2.20;99.90
8313;DHT22;4194;43.408;24.626;2022-12-24T02:02:44;2.10;99.90
8313;DHT22;4194;43.408;24.626;2022-12-24T02:07:45;1.60;99.90
8313;DHT22;4194;43.408;24.626;2022-12-24T02:10:14;3.90;99.90
8313;DHT22;4194;43.408;24.626;2022-12-24T02:12:41;2.00;99.90
8313;DHT22;4194;43.408;24.626;2022-12-24T02:15:09;2.60;99.90
8313;DHT22;4194;43.408;24.626;2022-12-24T02:30:51;2.40;99.90
8313;DHT22;4194;43.408;24.626;2022-12-24T02:33:31;3.10;99.90
8313;DHT22;4194;43.408;24.626;2022-12-24T02:36:18;2.40;99.90
8313;DHT22;4194;43.408;24.626;2022-12-24T02:38:49;2.50;99.90
8313;DHT22;4194;43.408;24.626;2022-12-24T02:41:29;2.00;99.90
8313;DHT22;4194;43.408;24.626;2022-12-24T02:44:16;2.20;99.90
8313;DHT22;4194;43.408;24.626;2022-12-24T02:46:44;1.40;99.90
8313;DHT22;4194;43.408;24.626;2022-12-24T02:49:12;3.30;99.90
8313;DHT22;4194;43.408;24.626;2022-12-24T02:51:38;1.90;99.90
8313;DHT22;4194;43.408;24.626;2022-12-24T02:54:04;1.90;99.90
8313;DHT22;4194;43.408;24.626;2022-12-24T03:12:51;2.70;99.90
8313;DHT22;4194;43.408;24.626;2022-12-24T03:15:22;1.20;99.90
8313;DHT22;4194;43.408;24.626;2022-12-24T03:17:49;1.80;99.90
8313;DHT22;4194;43.408;24.626;2022-12-24T03:20:37;2.20;99.90
8313;DHT22;4194;43.408;24.626;2022-12-24T03:25:30;1.60;99.90
8313;DHT22;4194;43.408;24.626;2022-12-24T03:27:56;1.90;99.90
8313;DHT22;4194;43.408;24.626;2022-12-24T03:30:23;2.40;99.90
8313;DHT22;4194;43.408;24.626;2022-12-24T03:32:50;1.80;99.90
8313;DHT22;4194;43.408;24.626;2022-12-24T03:35:16;1.80;99.90
8313;DHT22;4194;43.408;24.626;2022-12-24T03:37:41;2.20;99.90
8313;DHT22;4194;43.408;24.626;2022-12-24T03:40:07;2.30;99.90
8313;DHT22;4194;43.408;24.626;2022-12-24T03:42:33;2.50;99.90
8313;DHT22;4194;43.408;24.626;2022-12-24T03:44:59;1.70;99.90
8313;DHT22;4194;43.408;24.626;2022-12-24T03:47:25;2.30;99.90
8313;DHT22;4194;43.408;24.626;2022-12-24T03:49:51;1.80;99.90
8313;DHT22;4194;43.408;24.626;2022-12-24T03:52:17;1.80;99.90
8313;DHT22;4194;43.408;24.626;2022-12-24T03:54:42;1.80;99.90
8313;DHT22;4194;43.408;24.626;2022-12-24T03:57:08;2.10;99.90
8313;DHT22;4194;43.408;24.626;2022-12-24T03:59:33;2.90;99.90
8313;DHT22;4194;43.408;24.626;2022-12-24T04:01:59;1.80;99.90
8313;DHT22;4194;43.408;24.626;2022-12-24T04:04:25;1.60;99.90
8313;DHT22;4194;43.408;24.626;2022-12-24T04:06:51;1.30;99.90
8313;DHT22;4194;43.408;24.626;2022-12-24T04:09:16;1.50;99.90
8313;DHT22;4194;43.408;24.626;2022-12-24T04:11:42;2.20;99.90
8313;DHT22;4194;43.408;24.626;2022-12-24T04:19:00;1.60;99.90
8313;DHT22;4194;43.408;24.626;2022-12-24T04:21:25;2.50;99.90
8313;DHT22;4194;43.408;24.626;2022-12-24T04:23:51;1.80;99.90
8313;DHT22;4194;43.408;24.626;2022-12-24T04:31:14;0.80;99.90
8313;DHT22;4194;43.408;24.626;2022-12-24T04:33:40;2.20;99.90
8313;DHT22;4194;43.408;24.626;2022-12-24T04:36:06;2.40;99.90
8313;DHT22;4194;43.408;24.626;2022-12-24T04:38:33;2.00;99.90
8313;DHT22;4194;43.408;24.626;2022-12-24T04:41:01;1.80;99.90
8313;DHT22;4194;43.408;24.626;2022-12-24T04:43:28;2.40;99.90
8313;DHT22;4194;43.408;24.626;2022-12-24T04:45:54;3.20;99.90
8313;DHT22;4194;43.408;24.626;2022-12-24T04:48:19;2.20;99.90
8313;DHT22;4194;43.408;24.626;2022-12-24T04:50:45;2.40;99.90
8313;DHT22;4194;43.408;24.626;2022-12-24T04:53:11;2.10;99.90
8313;DHT22;4194;43.408;24.626;2022-12-24T04:55:45;2.20;99.90
8313;DHT22;4194;43.408;24.626;2022-12-24T04:58:12;2.50;99.90
8313;DHT22;4194;43.408;24.626;2022-12-24T05:00:39;1.20;99.90
8313;DHT22;4194;43.408;24.626;2022-12-24T05:03:05;1.70;99.90
8313;DHT22;4194;43.408;24.626;2022-12-24T05:05:31;2.10;99.90
8313;DHT22;4194;43.408;24.626;2022-12-24T05:07:56;1.50;99.90
8313;DHT22;4194;43.408;24.626;2022-12-24T05:10:22;2.30;99.90
8313;DHT22;4194;43.408;24.626;2022-12-24T05:12:48;2.10;99.90
8313;DHT22;4194;43.408;24.626;2022-12-24T05:15:38;1.80;99.90
8313;DHT22;4194;43.408;24.626;2022-12-24T05:18:04;1.80;99.90
8313;DHT22;4194;43.408;24.626;2022-12-24T05:20:30;2.20;99.90
8313;DHT22;4194;43.408;24.626;2022-12-24T05:22:55;1.70;99.90
8313;DHT22;4194;43.408;24.626;2022-12-24T05:25:39;2.40;99.90
8313;DHT22;4194;43.408;24.626;2022-12-24T05:28:24;1.20;99.90
8313;DHT22;4194;43.408;24.626;2022-12-24T05:30:49;2.10;99.90
8313;DHT22;4194;43.408;24.626;2022-12-24T05:33:15;1.60;99.90
8313;DHT22;4194;43.408;24.626;2022-12-24T05:35:41;1.60;99.90
8313;DHT22;4194;43.408;24.626;2022-12-24T05:38:06;1.50;99.90
8313;DHT22;4194;43.408;24.626;2022-12-24T05:40:32;1.60;99.90
8313;DHT22;4194;43.408;24.626;2022-12-24T05:42:58;1.40;99.90
8313;DHT22;4194;43.408;24.626;2022-12-24T05:45:24;2.70;99.90
8313;DHT22;4194;43.408;24.626;2022-12-24T05:47:49;2.40;99.90
8313;DHT22;4194;43.408;24.626;2022-12-24T05:50:15;2.80;99.90
8313;DHT22;4194;43.408;24.626;2022-12-24T05:52:41;1.90;99.90
8313;DHT22;4194;43.408;24.626;2022-12-24T05:55:06;2.20;99.90
8313;DHT22;4194;43.408;24.626;2022-12-24T05:57:33;1.60;99.90
8313;DHT22;4194;43.408;24.626;2022-12-24T05:59:59;2.50;99.90
8313;DHT22;4194;43.408;24.626;2022-12-24T06:02:24;2.20;99.90
8313;DHT22;4194;43.408;24.626;2022-12-24T06:04:50;1.60;99.90
8313;DHT22;4194;43.408;24.626;2022-12-24T06:07:16;2.10;99.90
8313;DHT22;4194;43.408;24.626;2022-12-24T06:09:41;1.80;99.90
8313;DHT22;4194;43.408;24.626;2022-12-24T06:12:07;2.70;99.90
8313;DHT22;4194;43.408;24.626;2022-12-24T06:14:33;3.00;99.90
8313;DHT22;4194;43.408;24.626;2022-12-24T06:16:58;1.90;99.90
8313;DHT22;4194;43.408;24.626;2022-12-24T06:19:24;2.60;99.90
8313;DHT22;4194;43.408;24.626;2022-12-24T06:21:50;2.20;99.90
8313;DHT22;4194;43.408;24.626;2022-12-24T06:26:42;1.60;99.90
8313;DHT22;4194;43.408;24.626;2022-12-24T06:29:07;1.80;99.90
8313;DHT22;4194;43.408;24.626;2022-12-24T06:31:33;3.60;99.90
8313;DHT22;4194;43.408;24.626;2022-12-24T06:33:58;2.20;99.90
8313;DHT22;4194;43.408;24.626;2022-12-24T06:36:24;2.60;99.90
8313;DHT22;4194;43.408;24.626;2022-12-24T06:38:51;3.30;99.90
8313;DHT22;4194;43.408;24.626;2022-12-24T06:41:18;2.60;99.90
8313;DHT22;4194;43.408;24.626;2022-12-24T06:43:49;4.00;99.90
8313;DHT22;4194;43.408;24.626;2022-12-24T06:46:15;3.00;99.90
8313;DHT22;4194;43.408;24.626;2022-12-24T06:48:43;4.00;99.90
8313;DHT22;4194;43.408;24.626;2022-12-24T06:51:09;2.90;99.90
8313;DHT22;4194;43.408;24.626;2022-12-24T06:56:05;3.40;99.90
8313;DHT22;4194;43.408;24.626;2022-12-24T06:58:33;4.10;99.90
8313;DHT22;4194;43.408;24.626;2022-12-24T07:01:03;2.40;99.90
8313;DHT22;4194;43.408;24.626;2022-12-24T07:03:29;3.00;99.90
8313;DHT22;4194;43.408;24.626;2022-12-24T07:05:55;3.60;99.90
8313;DHT22;4194;43.408;24.626;2022-12-24T07:08:21;3.20;99.90
8313;DHT22;4194;43.408;24.626;2022-12-24T07:10:51;3.40;99.90
8313;DHT22;4194;43.408;24.626;2022-12-24T07:13:17;3.40;99.90
8313;DHT22;4194;43.408;24.626;2022-12-24T07:15:43;3.60;99.90
8313;DHT22;4194;43.408;24.626;2022-12-24T07:18:10;3.50;99.90
8313;DHT22;4194;43.408;24.626;2022-12-24T07:20:36;3.50;99.90
8313;DHT22;4194;43.408;24.626;2022-12-24T07:23:02;3.40;99.90
8313;DHT22;4194;43.408;24.626;2022-12-24T07:25:28;4.10;99.90
8313;DHT22;4194;43.408;24.626;2022-12-24T07:27:53;3.80;99.90
8313;DHT22;4194;43.408;24.626;2022-12-24T07:30:19;3.70;99.90
8313;DHT22;4194;43.408;24.626;2022-12-24T07:32:45;3.70;99.90
8313;DHT22;4194;43.408;24.626;2022-12-24T07:35:10;3.70;99.90
8313;DHT22;4194;43.408;24.626;2022-12-24T07:37:36;3.70;99.90
8313;DHT22;4194;43.408;24.626;2022-12-24T07:40:02;4.00;99.90
8313;DHT22;4194;43.408;24.626;2022-12-24T07:42:30;3.40;99.90
8313;DHT22;4194;43.408;24.626;2022-12-24T07:44:56;3.80;99.90
8313;DHT22;4194;43.408;24.626;2022-12-24T07:47:23;4.00;99.90
8313;DHT22;4194;43.408;24.626;2022-12-24T07:49:49;3.90;99.90
8313;DHT22;4194;43.408;24.626;2022-12-24T07:52:15;4.20;99.90
8313;DHT22;4194;43.408;24.626;2022-12-24T07:57:07;4.90;99.90
8313;DHT22;4194;43.408;24.626;2022-12-24T07:59:32;5.60;99.90
8313;DHT22;4194;43.408;24.626;2022-12-24T08:05:20;5.40;99.90
8313;DHT22;4194;43.408;24.626;2022-12-24T08:07:46;5.50;99.90
8313;DHT22;4194;43.408;24.626;2022-12-24T08:10:12;5.30;99.90
8313;DHT22;4194;43.408;24.626;2022-12-24T08:12:37;5.50;99.90
8313;DHT22;4194;43.408;24.626;2022-12-24T08:15:03;6.60;99.90
8313;DHT22;4194;43.408;24.626;2022-12-24T08:17:29;5.60;99.90
8313;DHT22;4194;43.408;24.626;2022-12-24T08:19:55;5.80;99.90
8313;DHT22;4194;43.408;24.626;2022-12-24T08:22:20;5.90;99.90
8313;DHT22;4194;43.408;24.626;2022-12-24T08:24:46;6.40;99.90
8313;DHT22;4194;43.408;24.626;2022-12-24T08:27:12;6.10;99.90
8313;DHT22;4194;43.408;24.626;2022-12-24T08:29:37;6.70;99.90
8313;DHT22;4194;43.408;24.626;2022-12-24T08:32:03;6.10;99.90
8313;DHT22;4194;43.408;24.626;2022-12-24T08:34:29;6.30;99.90
8313;DHT22;4194;43.408;24.626;2022-12-24T08:36:55;6.70;99.90
8313;DHT22;4194;43.408;24.626;2022-12-24T08:39:20;6.30;99.90
8313;DHT22;4194;43.408;24.626;2022-12-24T08:41:46;5.70;99.90
8313;DHT22;4194;43.408;24.626;2022-12-24T08:46:38;6.80;99.90
8313;DHT22;4194;43.408;24.626;2022-12-24T08:49:03;8.80;99.90
8313;DHT22;4194;43.408;24.626;2022-12-24T08:51:29;7.10;99.90
8313;DHT22;4194;43.408;24.626;2022-12-24T08:53:55;7.20;99.90
8313;DHT22;4194;43.408;24.626;2022-12-24T08:56:20;7.40;99.90
8313;DHT22;4194;43.408;24.626;2022-12-24T08:58:46;7.90;99.90
8313;DHT22;4194;43.408;24.626;2022-12-24T09:01:19;7.60;99.90
8313;DHT22;4194;43.408;24.626;2022-12-24T09:03:46;7.70;99.90
8313;DHT22;4194;43.408;24.626;2022-12-24T09:06:12;7.90;99.90
8313;DHT22;4194;43.408;24.626;2022-12-24T09:08:38;7.20;99.90
8313;DHT22;4194;43.408;24.626;2022-12-24T09:11:10;8.00;99.90
8313;DHT22;4194;43.408;24.626;2022-12-24T09:13:36;8.10;99.90
8313;DHT22;4194;43.408;24.626;2022-12-24T09:16:02;8.90;99.90
8313;DHT22;4194;43.408;24.626;2022-12-24T09:20:59;8.20;99.90
8313;DHT22;4194;43.408;24.626;2022-12-24T09:23:25;7.20;99.90
8313;DHT22;4194;43.408;24.626;2022-12-24T09:25:50;7.90;99.90
8313;DHT22;4194;43.408;24.626;2022-12-24T09:28:17;8.90;99.90
8313;DHT22;4194;43.408;24.626;2022-12-24T09:30:42;7.70;99.90
8313;DHT22;4194;43.408;24.626;2022-12-24T09:33:08;7.30;99.90
8313;DHT22;4194;43.408;24.626;2022-12-24T09:35:37;7.50;99.90
8313;DHT22;4194;43.408;24.626;2022-12-24T09:38:03;7.60;99.90
8313;DHT22;4194;43.408;24.626;2022-12-24T09:40:37;7.50;99.90
8313;DHT22;4194;43.408;24.626;2022-12-24T09:43:11;7.10;99.90
8313;DHT22;4194;43.408;24.626;2022-12-24T09:45:43;7.60;99.90
8313;DHT22;4194;43.408;24.626;2022-12-24T09:48:14;8.70;99.90
8313;DHT22;4194;43.408;24.626;2022-12-24T09:51:15;6.10;99.90
8313;DHT22;4194;43.408;24.626;2022-12-24T09:53:59;8.70;99.90
8313;DHT22;4194;43.408;24.626;2022-12-24T09:56:29;7.00;99.90
8313;DHT22;4194;43.408;24.626;2022-12-24T09:59:01;8.00;99.90
8313;DHT22;4194;43.408;24.626;2022-12-24T10:01:32;8.10;99.90
8313;DHT22;4194;43.408;24.626;2022-12-24T10:04:11;7.30;99.90
8313;DHT22;4194;43.408;24.626;2022-12-24T10:07:23;8.00;99.90
8313;DHT22;4194;43.408;24.626;2022-12-24T10:10:36;7.20;99.90
8313;DHT22;4194;43.408;24.626;2022-12-24T10:12:56;7.30;99.90
8313;DHT22;4194;43.408;24.626;2022-12-24T10:15:33;8.90;99.90
8313;DHT22;4194;43.408;24.626;2022-12-24T10:23:50;7.80;99.90
8313;DHT22;4194;43.408;24.626;2022-12-24T10:29:16;9.20;99.90
8313;DHT22;4194;43.408;24.626;2022-12-24T10:32:27;7.20;99.90
8313;DHT22;4194;43.408;24.626;2022-12-24T10:34:51;8.40;99.90
8313;DHT22;4194;43.408;24.626;2022-12-24T10:37:25;8.50;99.90
8313;DHT22;4194;43.408;24.626;2022-12-24T10:39:53;8.30;99.90
8313;DHT22;4194;43.408;24.626;2022-12-24T10:42:22;8.20;99.90
8313;DHT22;4194;43.408;24.626;2022-12-24T10:44:54;8.60;99.90
8313;DHT22;4194;43.408;24.626;2022-12-24T10:47:21;9.00;99.90
8313;DHT22;4194;43.408;24.626;2022-12-24T10:49:51;7.90;99.90
8313;DHT22;4194;43.408;24.626;2022-12-24T10:52:21;8.20;99.90
8313;DHT22;4194;43.408;24.626;2022-12-24T10:55:09;8.30;99.90
8313;DHT22;4194;43.408;24.626;2022-12-24T10:57:36;8.30;99.90
8313;DHT22;4194;43.408;24.626;2022-12-24T11:00:05;8.40;99.90
8313;DHT22;4194;43.408;24.626;2022-12-24T11:02:37;9.50;99.90
8313;DHT22;4194;43.408;24.626;2022-12-24T11:08:02;9.30;99.90
8313;DHT22;4194;43.408;24.626;2022-12-24T11:10:28;9.20;99.90
8313;DHT22;4194;43.408;24.626;2022-12-24T11:12:55;10.50;99.90
8313;DHT22;4194;43.408;24.626;2022-12-24T11:15:28;10.40;99.90
8313;DHT22;4194;43.408;24.626;2022-12-24T11:17:59;9.30;99.90
8313;DHT22;4194;43.408;24.626;2022-12-24T11:20:29;8.70;99.90
8313;DHT22;4194;43.408;24.626;2022-12-24T11:22:56;9.60;99.90
8313;DHT22;4194;43.408;24.626;2022-12-24T11:28:15;10.00;99.90
8313;DHT22;4194;43.408;24.626;2022-12-24T11:31:04;10.00;99.90
8313;DHT22;4194;43.408;24.626;2022-12-24T11:33:32;9.80;99.90
8313;DHT22;4194;43.408;24.626;2022-12-24T11:36:12;9.50;99.90
8313;DHT22;4194;43.408;24.626;2022-12-24T11:38:38;9.50;99.90
8313;DHT22;4194;43.408;24.626;2022-12-24T11:41:08;10.00;99.90
8313;DHT22;4194;43.408;24.626;2022-12-24T11:43:45;9.80;99.90
8313;DHT22;4194;43.408;24.626;2022-12-24T11:46:33;10.00;99.90
8313;DHT22;4194;43.408;24.626;2022-12-24T11:49:25;10.30;99.90
8313;DHT22;4194;43.408;24.626;2022-12-24T11:55:21;9.00;99.90
8313;DHT22;4194;43.408;24.626;2022-12-24T11:57:57;9.80;99.90
8313;DHT22;4194;43.408;24.626;2022-12-24T12:00:24;9.70;99.90
8313;DHT22;4194;43.408;24.626;2022-12-24T12:02:51;9.60;99.90
8313;DHT22;4194;43.408;24.626;2022-12-24T12:05:21;9.60;99.90
8313;DHT22;4194;43.408;24.626;2022-12-24T12:08:07;8.20;99.90
8313;DHT22;4194;43.408;24.626;2022-12-24T12:10:39;9.10;99.90
8313;DHT22;4194;43.408;24.626;2022-12-24T12:13:11;10.60;99.90
8313;DHT22;4194;43.408;24.626;2022-12-24T12:15:46;9.60;99.90
8313;DHT22;4194;43.408;24.626;2022-12-24T12:18:23;9.40;99.90
8313;DHT22;4194;43.408;24.626;2022-12-24T12:20:59;9.60;99.90
8313;DHT22;4194;43.408;24.626;2022-12-24T12:28:57;9.30;99.90
8313;DHT22;4194;43.408;24.626;2022-12-24T12:31:48;9.40;99.90
8313;DHT22;4194;43.408;24.626;2022-12-24T12:35:08;10.50;99.90
8313;DHT22;4194;43.408;24.626;2022-12-24T12:37:17;8.30;99.90
8313;DHT22;4194;43.408;24.626;2022-12-24T12:39:45;9.40;99.90
8313;DHT22;4194;43.408;24.626;2022-12-24T12:42:21;9.80;99.90
8313;DHT22;4194;43.408;24.626;2022-12-24T12:50:46;9.30;99.90
8313;DHT22;4194;43.408;24.626;2022-12-24T12:56:14;9.50;99.90
8313;DHT22;4194;43.408;24.626;2022-12-24T12:58:52;9.10;99.90
8313;DHT22;4194;43.408;24.626;2022-12-24T13:06:33;9.40;99.90
8313;DHT22;4194;43.408;24.626;2022-12-24T13:12:19;9.10;99.90
8313;DHT22;4194;43.408;24.626;2022-12-24T13:20:30;9.00;99.90
8313;DHT22;4194;43.408;24.626;2022-12-24T13:25:50;9.40;99.90
8313;DHT22;4194;43.408;24.626;2022-12-24T13:30:49;8.60;99.90
8313;DHT22;4194;43.408;24.626;2022-12-24T13:36:05;9.10;99.90
8313;DHT22;4194;43.408;24.626;2022-12-24T13:38:55;9.20;99.90
8313;DHT22;4194;43.408;24.626;2022-12-24T13:49:32;8.50;99.90
8313;DHT22;4194;43.408;24.626;2022-12-24T13:54:41;9.10;99.90
8313;DHT22;4194;43.408;24.626;2022-12-24T14:00:03;8.30;99.90
8313;DHT22;4194;43.408;24.626;2022-12-24T14:02:33;9.30;99.90
8313;DHT22;4194;43.408;24.626;2022-12-24T14:05:03;8.50;99.90
8313;DHT22;4194;43.408;24.626;2022-12-24T14:07:29;9.40;99.90
8313;DHT22;4194;43.408;24.626;2022-12-24T14:09:56;8.60;99.90
8313;DHT22;4194;43.408;24.626;2022-12-24T14:12:46;8.40;99.90
8313;DHT22;4194;43.408;24.626;2022-12-24T14:18:31;9.50;99.90
8313;DHT22;4194;43.408;24.626;2022-12-24T14:21:00;8.60;99.90
8313;DHT22;4194;43.408;24.626;2022-12-24T14:23:48;9.50;99.90
8313;DHT22;4194;43.408;24.626;2022-12-24T14:26:17;8.00;99.90
8313;DHT22;4194;43.408;24.626;2022-12-24T14:29:00;9.10;99.90
8313;DHT22;4194;43.408;24.626;2022-12-24T14:31:27;8.40;99.90
8313;DHT22;4194;43.408;24.626;2022-12-24T14:34:10;7.30;99.90
8313;DHT22;4194;43.408;24.626;2022-12-24T14:36:37;9.50;99.90
8313;DHT22;4194;43.408;24.626;2022-12-24T14:39:06;8.40;99.90
8313;DHT22;4194;43.408;24.626;2022-12-24T14:41:48;8.90;99.90
8313;DHT22;4194;43.408;24.626;2022-12-24T14:56:20;8.40;99.90
8313;DHT22;4194;43.408;24.626;2022-12-24T14:58:47;9.30;99.90
8313;DHT22;4194;43.408;24.626;2022-12-24T15:01:27;8.80;99.90
8313;DHT22;4194;43.408;24.626;2022-12-24T15:04:13;8.70;99.90
8313;DHT22;4194;43.408;24.626;2022-12-24T15:06:51;9.10;99.90
8313;DHT22;4194;43.408;24.626;2022-12-24T15:09:23;8.70;99.90
8313;DHT22;4194;43.408;24.626;2022-12-24T15:11:52;9.00;99.90
8313;DHT22;4194;43.408;24.626;2022-12-24T15:14:20;8.70;99.90
8313;DHT22;4194;43.408;24.626;2022-12-24T15:16:58;9.00;99.90
8313;DHT22;4194;43.408;24.626;2022-12-24T15:19:38;8.90;99.90
8313;DHT22;4194;43.408;24.626;2022-12-24T15:22:09;8.60;99.90
8313;DHT22;4194;43.408;24.626;2022-12-24T15:24:44;9.40;99.90
8313;DHT22;4194;43.408;24.626;2022-12-24T15:27:19;9.70;99.90
8313;DHT22;4194;43.408;24.626;2022-12-24T15:32:17;9.00;99.90
8313;DHT22;4194;43.408;24.626;2022-12-24T15:34:45;8.60;99.90
8313;DHT22;4194;43.408;24.626;2022-12-24T15:37:28;9.10;99.90
8313;DHT22;4194;43.408;24.626;2022-12-24T15:40:08;8.90;99.90
8313;DHT22;4194;43.408;24.626;2022-12-24T15:42:35;8.40;99.90
8313;DHT22;4194;43.408;24.626;2022-12-24T15:45:06;8.70;99.90
8313;DHT22;4194;43.408;24.626;2022-12-24T15:47:35;8.30;99.90
8313;DHT22;4194;43.408;24.626;2022-12-24T15:50:14;8.80;99.90
8313;DHT22;4194;43.408;24.626;2022-12-24T15:52:41;9.10;99.90
8313;DHT22;4194;43.408;24.626;2022-12-24T15:55:33;8.30;99.90
8313;DHT22;4194;43.408;24.626;2022-12-24T15:58:00;8.80;99.90
8313;DHT22;4194;43.408;24.626;2022-12-24T16:00:28;8.90;99.90
8313;DHT22;4194;43.408;24.626;2022-12-24T16:03:19;9.10;99.90
8313;DHT22;4194;43.408;24.626;2022-12-24T16:05:45;8.80;99.90
8313;DHT22;4194;43.408;24.626;2022-12-24T16:13:30;9.10;99.90
8313;DHT22;4194;43.408;24.626;2022-12-24T16:15:57;9.10;99.90
8313;DHT22;4194;43.408;24.626;2022-12-24T16:18:27;9.20;99.90
8313;DHT22;4194;43.408;24.626;2022-12-24T16:20:55;9.30;99.90
8313;DHT22;4194;43.408;24.626;2022-12-24T16:23:24;9.50;99.90
8313;DHT22;4194;43.408;24.626;2022-12-24T16:25:51;10.60;99.90
8313;DHT22;4194;43.408;24.626;2022-12-24T16:28:17;10.00;99.90
8313;DHT22;4194;43.408;24.626;2022-12-24T16:30:44;11.30;99.90
8313;DHT22;4194;43.408;24.626;2022-12-24T16:33:18;9.60;99.90
8313;DHT22;4194;43.408;24.626;2022-12-24T16:35:44;8.70;99.90
8313;DHT22;4194;43.408;24.626;2022-12-24T16:38:11;9.50;99.90
8313;DHT22;4194;43.408;24.626;2022-12-24T16:40:39;9.40;99.90
8313;DHT22;4194;43.408;24.626;2022-12-24T16:45:49;9.60;99.90
8313;DHT22;4194;43.408;24.626;2022-12-24T16:48:23;9.60;99.90
8313;DHT22;4194;43.408;24.626;2022-12-24T16:50:50;9.00;99.90
8313;DHT22;4194;43.408;24.626;2022-12-24T16:53:16;9.70;99.90
8313;DHT22;4194;43.408;24.626;2022-12-24T16:55:43;9.60;99.90
8313;DHT22;4194;43.408;24.626;2022-12-24T16:58:14;9.20;99.90
8313;DHT22;4194;43.408;24.626;2022-12-24T17:00:40;9.80;99.90
8313;DHT22;4194;43.408;24.626;2022-12-24T17:03:06;9.60;99.90
8313;DHT22;4194;43.408;24.626;2022-12-24T17:05:35;10.00;99.90
8313;DHT22;4194;43.408;24.626;2022-12-24T17:08:01;10.20;99.90
8313;DHT22;4194;43.408;24.626;2022-12-24T17:10:27;10.00;99.90
8313;DHT22;4194;43.408;24.626;2022-12-24T17:12:54;10.40;99.90
8313;DHT22;4194;43.408;24.626;2022-12-24T17:15:20;10.80;99.90
8313;DHT22;4194;43.408;24.626;2022-12-24T17:17:46;10.00;99.90
8313;DHT22;4194;43.408;24.626;2022-12-24T17:20:11;11.10;99.90
8313;DHT22;4194;43.408;24.626;2022-12-24T17:22:38;11.50;99.90
8313;DHT22;4194;43.408;24.626;2022-12-24T17:25:04;9.80;99.90
8313;DHT22;4194;43.408;24.626;2022-12-24T17:27:31;10.00;99.90
8313;DHT22;4194;43.408;24.626;2022-12-24T17:29:57;9.70;99.90
8313;DHT22;4194;43.408;24.626;2022-12-24T17:32:24;10.70;99.90
8313;DHT22;4194;43.408;24.626;2022-12-24T17:34:50;9.40;99.90
8313;DHT22;4194;43.408;24.626;2022-12-24T17:37:15;10.00;99.90
8313;DHT22;4194;43.408;24.626;2022-12-24T17:39:41;9.60;99.90
8313;DHT22;4194;43.408;24.626;2022-12-24T17:42:07;10.00;99.90
8313;DHT22;4194;43.408;24.626;2022-12-24T17:44:32;10.20;99.90
8313;DHT22;4194;43.408;24.626;2022-12-24T17:46:58;10.90;99.90
8313;DHT22;4194;43.408;24.626;2022-12-24T17:49:24;10.10;99.90
8313;DHT22;4194;43.408;24.626;2022-12-24T17:51:49;10.20;99.90
8313;DHT22;4194;43.408;24.626;2022-12-24T17:54:15;8.60;99.90
8313;DHT22;4194;43.408;24.626;2022-12-24T17:59:07;10.30;99.90
8313;DHT22;4194;43.408;24.626;2022-12-24T18:01:33;10.00;99.90
8313;DHT22;4194;43.408;24.626;2022-12-24T18:04:00;10.40;99.90
8313;DHT22;4194;43.408;24.626;2022-12-24T18:06:27;10.60;99.90
8313;DHT22;4194;43.408;24.626;2022-12-24T18:08:53;9.90;99.90
8313;DHT22;4194;43.408;24.626;2022-12-24T18:11:21;11.00;99.90
8313;DHT22;4194;43.408;24.626;2022-12-24T18:13:48;9.20;99.90
8313;DHT22;4194;43.408;24.626;2022-12-24T18:16:24;12.10;99.90
8313;DHT22;4194;43.408;24.626;2022-12-24T18:18:51;10.40;99.90
8313;DHT22;4194;43.408;24.626;2022-12-24T18:21:18;10.40;99.90
8313;DHT22;4194;43.408;24.626;2022-12-24T18:23:46;10.60;99.90
8313;DHT22;4194;43.408;24.626;2022-12-24T18:26:12;11.70;99.90
8313;DHT22;4194;43.408;24.626;2022-12-24T18:28:38;10.00;99.90
8313;DHT22;4194;43.408;24.626;2022-12-24T18:31:11;8.80;99.90
8313;DHT22;4194;43.408;24.626;2022-12-24T18:33:37;10.00;99.90
8313;DHT22;4194;43.408;24.626;2022-12-24T18:36:04;10.20;99.90
8313;DHT22;4194;43.408;24.626;2022-12-24T18:38:30;10.50;99.90
8313;DHT22;4194;43.408;24.626;2022-12-24T18:41:08;11.00;99.90
8313;DHT22;4194;43.408;24.626;2022-12-24T18:43:33;10.00;99.90
8313;DHT22;4194;43.408;24.626;2022-12-24T18:46:05;10.00;99.90
8313;DHT22;4194;43.408;24.626;2022-12-24T18:48:32;10.40;99.90
8313;DHT22;4194;43.408;24.626;2022-12-24T18:50:57;9.80;99.90
8313;DHT22;4194;43.408;24.626;2022-12-24T18:53:24;8.80;99.90
8313;DHT22;4194;43.408;24.626;2022-12-24T18:55:50;8.50;99.90
8313;DHT22;4194;43.408;24.626;2022-12-24T18:58:16;8.70;99.90
8313;DHT22;4194;43.408;24.626;2022-12-24T19:00:42;11.00;99.90
8313;DHT22;4194;43.408;24.626;2022-12-24T19:03:07;8.30;99.90
8313;DHT22;4194;43.408;24.626;2022-12-24T19:07:59;9.60;99.90